地図

経路データ

SID SEASON NUMBER BASIN SUBBASIN NAME ISO_TIME NATURE LAT LON WMO_WIND WMO_PRES WMO_AGENCY TRACK_TYPE DIST2LAND LANDFALL IFLAG USA_AGENCY USA_ATCF_ID USA_LAT USA_LON USA_RECORD USA_STATUS USA_WIND USA_PRES USA_SSHS USA_R34_NE USA_R34_SE USA_R34_SW USA_R34_NW USA_R50_NE USA_R50_SE USA_R50_SW USA_R50_NW USA_R64_NE USA_R64_SE USA_R64_SW USA_R64_NW USA_POCI USA_ROCI USA_RMW USA_EYE TOKYO_LAT TOKYO_LON TOKYO_GRADE TOKYO_WIND TOKYO_PRES TOKYO_R50_DIR TOKYO_R50_LONG TOKYO_R50_SHORT TOKYO_R30_DIR TOKYO_R30_LONG TOKYO_R30_SHORT TOKYO_LAND CMA_LAT CMA_LON CMA_CAT CMA_WIND CMA_PRES HKO_LAT HKO_LON HKO_CAT HKO_WIND HKO_PRES NEWDELHI_LAT NEWDELHI_LON NEWDELHI_GRADE NEWDELHI_WIND NEWDELHI_PRES NEWDELHI_CI NEWDELHI_DP NEWDELHI_POCI REUNION_LAT REUNION_LON REUNION_TYPE REUNION_WIND REUNION_PRES REUNION_TNUM REUNION_CI REUNION_RMW REUNION_R34_NE REUNION_R34_SE REUNION_R34_SW REUNION_R34_NW REUNION_R50_NE REUNION_R50_SE REUNION_R50_SW REUNION_R50_NW REUNION_R64_NE REUNION_R64_SE REUNION_R64_SW REUNION_R64_NW BOM_LAT BOM_LON BOM_TYPE BOM_WIND BOM_PRES BOM_TNUM BOM_CI BOM_RMW BOM_R34_NE BOM_R34_SE BOM_R34_SW BOM_R34_NW BOM_R50_NE BOM_R50_SE BOM_R50_SW BOM_R50_NW BOM_R64_NE BOM_R64_SE BOM_R64_SW BOM_R64_NW BOM_ROCI BOM_POCI BOM_EYE BOM_POS_METHOD BOM_PRES_METHOD NADI_LAT NADI_LON NADI_CAT NADI_WIND NADI_PRES WELLINGTON_LAT WELLINGTON_LON WELLINGTON_WIND WELLINGTON_PRES DS824_LAT DS824_LON DS824_STAGE DS824_WIND DS824_PRES TD9636_LAT TD9636_LON TD9636_STAGE TD9636_WIND TD9636_PRES TD9635_LAT TD9635_LON TD9635_WIND TD9635_PRES TD9635_ROCI NEUMANN_LAT NEUMANN_LON NEUMANN_CLASS NEUMANN_WIND NEUMANN_PRES MLC_LAT MLC_LON MLC_CLASS MLC_WIND MLC_PRES USA_GUST BOM_GUST BOM_GUST_PER REUNION_GUST REUNION_GUST_PER USA_SEAHGT USA_SEARAD_NE USA_SEARAD_SE USA_SEARAD_SW USA_SEARAD_NW STORM_SPEED STORM_DIR
1907202N20131 1907 33 WP MM NOT_NAMED 1907-07-20 16:00:00 NR 20.3000 130.600 main 896 886 __________O___ -1 20.3000 130.600 7 20 342
1907202N20131 1907 33 WP MM NOT_NAMED 1907-07-20 18:00:00 NR 20.9445 130.375 main 892 886 __________P___ -1 20.9445 130.375 7 20 342
1907202N20131 1907 33 WP MM NOT_NAMED 1907-07-20 21:00:00 NR 21.8758 130.051 main 886 829 __________P___ -1 21.8758 130.051 7 19 342
1907202N20131 1907 33 WP MM NOT_NAMED 1907-07-21 00:00:00 NR 22.7158 129.767 main 829 790 __________P___ -1 22.7158 129.767 7 16 343
1907202N20131 1907 33 WP MM NOT_NAMED 1907-07-21 03:00:00 NR 23.4102 129.552 main 790 775 __________P___ -1 23.4102 129.552 7 14 345
1907202N20131 1907 33 WP MM NOT_NAMED 1907-07-21 04:00:00 NR 23.6000 129.500 main 775 758 __________O___ -1 23.6000 129.500 4 10 348
1907202N20131 1907 33 WP MM NOT_NAMED 1907-07-21 06:00:00 NR 23.9111 129.431 main 758 752 __________P___ -1 23.9111 129.431 4 8 352
1907202N20131 1907 33 WP MM NOT_NAMED 1907-07-21 09:00:00 NR 24.2395 129.404 main 752 735 __________P___ -1 24.2395 129.404 4 6 3
1907202N20131 1907 33 WP MM NOT_NAMED 1907-07-21 12:00:00 NR 24.4602 129.453 main 735 722 __________P___ -1 24.4602 129.453 4 4 19
1907202N20131 1907 33 WP MM NOT_NAMED 1907-07-21 15:00:00 NR 24.6386 129.557 main 722 711 __________P___ -1 24.6386 129.557 4 4 29
1907202N20131 1907 33 WP MM NOT_NAMED 1907-07-21 16:00:00 NR 24.7000 129.600 main 711 688 __________O___ -1 24.7000 129.600 4 5 27
1907202N20131 1907 33 WP MM NOT_NAMED 1907-07-21 18:00:00 NR 24.8540 129.670 main 688 664 __________P___ -1 24.8540 129.670 4 5 27
1907202N20131 1907 33 WP MM NOT_NAMED 1907-07-21 21:00:00 NR 25.0782 129.812 main 664 640 __________P___ -1 25.0782 129.812 4 6 33
1907202N20131 1907 33 WP MM NOT_NAMED 1907-07-22 00:00:00 NR 25.3166 129.996 main 640 604 __________P___ -1 25.3166 129.996 4 6 35
1907202N20131 1907 33 WP MM NOT_NAMED 1907-07-22 03:00:00 NR 25.5943 130.218 main 604 592 __________P___ -1 25.5943 130.218 4 7 36
1907202N20131 1907 33 WP MM NOT_NAMED 1907-07-22 04:00:00 NR 25.7000 130.300 main 592 569 __________O___ -1 25.7000 130.300 4 8 32
1907202N20131 1907 33 WP MM NOT_NAMED 1907-07-22 06:00:00 NR 25.9485 130.461 main 569 513 __________P___ -1 25.9485 130.461 4 9 30
1907202N20131 1907 33 WP MM NOT_NAMED 1907-07-22 09:00:00 NR 26.3656 130.734 main 513 469 __________P___ -1 26.3656 130.734 4 10 31
1907202N20131 1907 33 WP MM NOT_NAMED 1907-07-22 12:00:00 NR 26.8109 131.041 main 469 418 __________P___ -1 26.8109 131.041 4 11 33
1907202N20131 1907 33 WP MM NOT_NAMED 1907-07-22 15:00:00 NR 27.2563 131.381 main 418 409 __________P___ -1 27.2563 131.381 4 11 35
1907202N20131 1907 33 WP MM NOT_NAMED 1907-07-22 16:00:00 NR 27.4000 131.500 main 409 380 __________O___ -1 27.4000 131.500 4 11 38
1907202N20131 1907 33 WP MM NOT_NAMED 1907-07-22 18:00:00 NR 27.6758 131.747 main 380 350 __________P___ -1 27.6758 131.747 4 10 40
1907202N20131 1907 33 WP MM NOT_NAMED 1907-07-22 21:00:00 NR 28.0644 132.137 main 350 338 __________P___ -1 28.0644 132.137 4 10 43
1907202N20131 1907 33 WP MM NOT_NAMED 1907-07-23 00:00:00 NR 28.4307 132.543 main 338 323 __________P___ -1 28.4307 132.543 4 10 45
1907202N20131 1907 33 WP MM NOT_NAMED 1907-07-23 03:00:00 NR 28.7837 132.960 main 328 323 __________P___ -1 28.7837 132.960 4 10 46
1907202N20131 1907 33 WP MM NOT_NAMED 1907-07-23 04:00:00 NR 28.9000 133.100 main 323 __________O___ -1 28.9000 133.100 7 10 48

デジタル台風データ・検索

IBTrACS Databaseについて

本データベースは、米国NOAAが公開する1842年以降の世界の熱帯低気圧のベストトラックデータアーカイブInternational Best Track Archive for Climate Stewardship (IBTrACS)を、ウェブで閲覧しやすい形式に変換したものです。

最終更新日:2021-12-06